sensor_id;sensor_type;location;lat;lon;timestamp;P1;durP1;ratioP1;P2;durP2;ratioP2
75898;SDS011;64576;50.460;4.866;2023-07-09T00:02:13;10.05;;;5.80;;
75898;SDS011;64576;50.460;4.866;2023-07-09T00:04:39;10.55;;;6.22;;
75898;SDS011;64576;50.460;4.866;2023-07-09T00:07:05;10.63;;;5.65;;
75898;SDS011;64576;50.460;4.866;2023-07-09T00:09:36;9.60;;;5.95;;
75898;SDS011;64576;50.460;4.866;2023-07-09T00:12:01;8.52;;;5.88;;
75898;SDS011;64576;50.460;4.866;2023-07-09T00:14:27;10.45;;;5.53;;
75898;SDS011;64576;50.460;4.866;2023-07-09T00:16:53;10.27;;;5.82;;
75898;SDS011;64576;50.460;4.866;2023-07-09T00:19:19;10.15;;;5.70;;
75898;SDS011;64576;50.460;4.866;2023-07-09T00:21:49;9.18;;;5.78;;
75898;SDS011;64576;50.460;4.866;2023-07-09T00:24:18;10.23;;;5.90;;
75898;SDS011;64576;50.460;4.866;2023-07-09T00:26:44;10.38;;;5.88;;
75898;SDS011;64576;50.460;4.866;2023-07-09T00:29:11;13.45;;;5.45;;
75898;SDS011;64576;50.460;4.866;2023-07-09T00:31:38;12.05;;;5.63;;
75898;SDS011;64576;50.460;4.866;2023-07-09T00:34:09;8.90;;;5.30;;
75898;SDS011;64576;50.460;4.866;2023-07-09T00:36:38;11.02;;;5.47;;
75898;SDS011;64576;50.460;4.866;2023-07-09T00:39:04;10.90;;;5.43;;
75898;SDS011;64576;50.460;4.866;2023-07-09T00:41:36;9.00;;;6.10;;
75898;SDS011;64576;50.460;4.866;2023-07-09T00:44:19;9.63;;;6.20;;
75898;SDS011;64576;50.460;4.866;2023-07-09T00:49:29;11.05;;;5.53;;
75898;SDS011;64576;50.460;4.866;2023-07-09T00:51:58;11.40;;;5.72;;
75898;SDS011;64576;50.460;4.866;2023-07-09T00:57:05;11.65;;;5.38;;
75898;SDS011;64576;50.460;4.866;2023-07-09T00:59:37;8.65;;;5.50;;
75898;SDS011;64576;50.460;4.866;2023-07-09T01:02:05;11.20;;;5.32;;
75898;SDS011;64576;50.460;4.866;2023-07-09T01:04:31;9.48;;;5.40;;
75898;SDS011;64576;50.460;4.866;2023-07-09T01:06:57;9.70;;;5.28;;
75898;SDS011;64576;50.460;4.866;2023-07-09T01:09:23;12.75;;;5.40;;
75898;SDS011;64576;50.460;4.866;2023-07-09T01:11:49;11.32;;;5.45;;
75898;SDS011;64576;50.460;4.866;2023-07-09T01:14:15;10.05;;;5.72;;
75898;SDS011;64576;50.460;4.866;2023-07-09T01:16:50;9.52;;;5.55;;
75898;SDS011;64576;50.460;4.866;2023-07-09T01:19:23;10.20;;;5.63;;
75898;SDS011;64576;50.460;4.866;2023-07-09T01:21:52;10.50;;;6.18;;
75898;SDS011;64576;50.460;4.866;2023-07-09T01:27:13;10.73;;;5.07;;
75898;SDS011;64576;50.460;4.866;2023-07-09T01:29:39;8.88;;;5.57;;
75898;SDS011;64576;50.460;4.866;2023-07-09T01:32:06;9.55;;;5.05;;
75898;SDS011;64576;50.460;4.866;2023-07-09T01:34:32;10.35;;;5.18;;
75898;SDS011;64576;50.460;4.866;2023-07-09T01:36:58;10.00;;;6.03;;
75898;SDS011;64576;50.460;4.866;2023-07-09T01:39:24;11.27;;;5.50;;
75898;SDS011;64576;50.460;4.866;2023-07-09T01:41:59;10.45;;;5.10;;
75898;SDS011;64576;50.460;4.866;2023-07-09T01:44:24;10.48;;;5.68;;
75898;SDS011;64576;50.460;4.866;2023-07-09T01:46:55;9.90;;;5.82;;
75898;SDS011;64576;50.460;4.866;2023-07-09T01:49:20;12.10;;;6.35;;
75898;SDS011;64576;50.460;4.866;2023-07-09T01:51:46;9.35;;;5.43;;
75898;SDS011;64576;50.460;4.866;2023-07-09T01:54:14;9.23;;;5.80;;
75898;SDS011;64576;50.460;4.866;2023-07-09T01:56:41;13.13;;;6.38;;
75898;SDS011;64576;50.460;4.866;2023-07-09T01:59:07;10.52;;;5.95;;
75898;SDS011;64576;50.460;4.866;2023-07-09T02:01:36;9.25;;;5.18;;
75898;SDS011;64576;50.460;4.866;2023-07-09T02:04:03;8.85;;;5.43;;
75898;SDS011;64576;50.460;4.866;2023-07-09T02:06:28;10.68;;;6.65;;
75898;SDS011;64576;50.460;4.866;2023-07-09T02:08:57;9.27;;;5.03;;
75898;SDS011;64576;50.460;4.866;2023-07-09T02:11:23;8.90;;;5.40;;
75898;SDS011;64576;50.460;4.866;2023-07-09T02:13:55;8.52;;;5.72;;
75898;SDS011;64576;50.460;4.866;2023-07-09T02:16:21;7.97;;;5.25;;
75898;SDS011;64576;50.460;4.866;2023-07-09T02:18:46;8.27;;;5.70;;
75898;SDS011;64576;50.460;4.866;2023-07-09T02:21:11;8.85;;;5.95;;
75898;SDS011;64576;50.460;4.866;2023-07-09T02:23:37;8.15;;;5.32;;
75898;SDS011;64576;50.460;4.866;2023-07-09T02:26:02;10.95;;;6.20;;
75898;SDS011;64576;50.460;4.866;2023-07-09T02:28:27;9.70;;;5.60;;
75898;SDS011;64576;50.460;4.866;2023-07-09T02:30:53;11.43;;;6.40;;
75898;SDS011;64576;50.460;4.866;2023-07-09T02:33:18;12.65;;;6.45;;
75898;SDS011;64576;50.460;4.866;2023-07-09T02:35:45;14.15;;;6.30;;
75898;SDS011;64576;50.460;4.866;2023-07-09T02:38:11;11.07;;;5.40;;
75898;SDS011;64576;50.460;4.866;2023-07-09T02:40:36;11.00;;;5.85;;
75898;SDS011;64576;50.460;4.866;2023-07-09T02:43:01;10.30;;;5.93;;
75898;SDS011;64576;50.460;4.866;2023-07-09T02:45:27;12.32;;;5.55;;
75898;SDS011;64576;50.460;4.866;2023-07-09T02:47:52;8.70;;;5.50;;
75898;SDS011;64576;50.460;4.866;2023-07-09T02:50:17;12.65;;;6.50;;
75898;SDS011;64576;50.460;4.866;2023-07-09T02:52:43;10.50;;;5.22;;
75898;SDS011;64576;50.460;4.866;2023-07-09T02:55:09;8.15;;;5.43;;
75898;SDS011;64576;50.460;4.866;2023-07-09T02:57:35;11.55;;;5.35;;
75898;SDS011;64576;50.460;4.866;2023-07-09T03:00:00;10.40;;;6.18;;
75898;SDS011;64576;50.460;4.866;2023-07-09T03:02:33;12.03;;;6.40;;
75898;SDS011;64576;50.460;4.866;2023-07-09T03:04:58;9.98;;;5.32;;
75898;SDS011;64576;50.460;4.866;2023-07-09T03:07:24;10.30;;;5.80;;
75898;SDS011;64576;50.460;4.866;2023-07-09T03:09:49;13.70;;;5.80;;
75898;SDS011;64576;50.460;4.866;2023-07-09T03:12:15;10.57;;;5.80;;
75898;SDS011;64576;50.460;4.866;2023-07-09T03:14:40;9.98;;;6.38;;
75898;SDS011;64576;50.460;4.866;2023-07-09T03:17:05;9.80;;;5.97;;
75898;SDS011;64576;50.460;4.866;2023-07-09T03:19:31;9.18;;;5.88;;
75898;SDS011;64576;50.460;4.866;2023-07-09T03:21:56;9.48;;;5.45;;
75898;SDS011;64576;50.460;4.866;2023-07-09T03:24:21;9.38;;;5.53;;
75898;SDS011;64576;50.460;4.866;2023-07-09T03:26:47;9.77;;;6.20;;
75898;SDS011;64576;50.460;4.866;2023-07-09T03:29:13;9.35;;;5.95;;
75898;SDS011;64576;50.460;4.866;2023-07-09T03:31:39;10.15;;;7.18;;
75898;SDS011;64576;50.460;4.866;2023-07-09T03:34:04;9.13;;;5.65;;
75898;SDS011;64576;50.460;4.866;2023-07-09T03:36:29;10.27;;;5.88;;
75898;SDS011;64576;50.460;4.866;2023-07-09T03:38:55;10.27;;;6.10;;
75898;SDS011;64576;50.460;4.866;2023-07-09T03:41:20;12.40;;;6.20;;
75898;SDS011;64576;50.460;4.866;2023-07-09T03:43:46;15.60;;;7.20;;
75898;SDS011;64576;50.460;4.866;2023-07-09T03:46:11;7.13;;;5.22;;
75898;SDS011;64576;50.460;4.866;2023-07-09T03:48:37;9.45;;;5.50;;
75898;SDS011;64576;50.460;4.866;2023-07-09T03:51:03;11.27;;;5.07;;
75898;SDS011;64576;50.460;4.866;2023-07-09T03:53:29;9.10;;;5.25;;
75898;SDS011;64576;50.460;4.866;2023-07-09T03:55:54;11.57;;;5.22;;
75898;SDS011;64576;50.460;4.866;2023-07-09T03:58:21;10.07;;;5.70;;
75898;SDS011;64576;50.460;4.866;2023-07-09T04:00:48;9.13;;;5.93;;
75898;SDS011;64576;50.460;4.866;2023-07-09T04:03:13;9.85;;;5.35;;
75898;SDS011;64576;50.460;4.866;2023-07-09T04:05:39;9.23;;;5.30;;
75898;SDS011;64576;50.460;4.866;2023-07-09T04:08:04;11.90;;;5.65;;
75898;SDS011;64576;50.460;4.866;2023-07-09T04:10:30;9.23;;;5.72;;
75898;SDS011;64576;50.460;4.866;2023-07-09T04:12:56;9.85;;;4.93;;
75898;SDS011;64576;50.460;4.866;2023-07-09T04:15:21;8.77;;;5.10;;
75898;SDS011;64576;50.460;4.866;2023-07-09T04:17:46;9.68;;;5.82;;
75898;SDS011;64576;50.460;4.866;2023-07-09T04:20:12;7.93;;;5.22;;
75898;SDS011;64576;50.460;4.866;2023-07-09T04:22:39;9.73;;;4.50;;
75898;SDS011;64576;50.460;4.866;2023-07-09T04:25:05;12.75;;;5.15;;
75898;SDS011;64576;50.460;4.866;2023-07-09T04:27:34;10.95;;;5.72;;
75898;SDS011;64576;50.460;4.866;2023-07-09T04:30:00;8.05;;;5.03;;
75898;SDS011;64576;50.460;4.866;2023-07-09T04:32:26;10.38;;;5.30;;
75898;SDS011;64576;50.460;4.866;2023-07-09T04:34:51;8.65;;;4.82;;
75898;SDS011;64576;50.460;4.866;2023-07-09T04:37:17;8.38;;;4.57;;
75898;SDS011;64576;50.460;4.866;2023-07-09T04:39:42;8.27;;;5.28;;
75898;SDS011;64576;50.460;4.866;2023-07-09T04:42:12;9.27;;;5.20;;
75898;SDS011;64576;50.460;4.866;2023-07-09T04:44:39;11.20;;;5.57;;
75898;SDS011;64576;50.460;4.866;2023-07-09T04:47:05;7.93;;;4.95;;
75898;SDS011;64576;50.460;4.866;2023-07-09T04:49:31;7.75;;;5.43;;
75898;SDS011;64576;50.460;4.866;2023-07-09T04:51:57;9.00;;;4.30;;
75898;SDS011;64576;50.460;4.866;2023-07-09T04:54:24;10.27;;;5.85;;
75898;SDS011;64576;50.460;4.866;2023-07-09T04:56:50;9.95;;;5.35;;
75898;SDS011;64576;50.460;4.866;2023-07-09T04:59:15;10.40;;;6.00;;
75898;SDS011;64576;50.460;4.866;2023-07-09T05:01:40;9.50;;;4.90;;
75898;SDS011;64576;50.460;4.866;2023-07-09T05:04:06;8.80;;;4.72;;
75898;SDS011;64576;50.460;4.866;2023-07-09T05:06:32;8.30;;;5.18;;
75898;SDS011;64576;50.460;4.866;2023-07-09T05:08:57;9.63;;;5.22;;
75898;SDS011;64576;50.460;4.866;2023-07-09T05:11:23;9.02;;;5.45;;
75898;SDS011;64576;50.460;4.866;2023-07-09T05:13:48;10.10;;;5.22;;
75898;SDS011;64576;50.460;4.866;2023-07-09T05:16:14;8.88;;;4.53;;
75898;SDS011;64576;50.460;4.866;2023-07-09T05:18:39;9.73;;;4.93;;
75898;SDS011;64576;50.460;4.866;2023-07-09T05:21:04;12.40;;;5.28;;
75898;SDS011;64576;50.460;4.866;2023-07-09T05:23:30;9.38;;;5.10;;
75898;SDS011;64576;50.460;4.866;2023-07-09T05:25:58;9.60;;;5.13;;
75898;SDS011;64576;50.460;4.866;2023-07-09T05:28:25;9.68;;;4.57;;
75898;SDS011;64576;50.460;4.866;2023-07-09T05:30:51;7.88;;;5.00;;
75898;SDS011;64576;50.460;4.866;2023-07-09T05:33:17;8.30;;;5.35;;
75898;SDS011;64576;50.460;4.866;2023-07-09T05:35:43;11.23;;;5.72;;
75898;SDS011;64576;50.460;4.866;2023-07-09T05:38:09;10.48;;;5.57;;
75898;SDS011;64576;50.460;4.866;2023-07-09T05:40:34;10.70;;;5.63;;
75898;SDS011;64576;50.460;4.866;2023-07-09T05:43:00;10.02;;;5.15;;
75898;SDS011;64576;50.460;4.866;2023-07-09T05:45:25;9.27;;;5.50;;
75898;SDS011;64576;50.460;4.866;2023-07-09T05:47:52;9.90;;;5.25;;
75898;SDS011;64576;50.460;4.866;2023-07-09T05:50:17;10.32;;;5.20;;
75898;SDS011;64576;50.460;4.866;2023-07-09T05:52:42;8.93;;;5.07;;
75898;SDS011;64576;50.460;4.866;2023-07-09T05:55:08;8.73;;;5.03;;
75898;SDS011;64576;50.460;4.866;2023-07-09T05:57:33;9.18;;;5.22;;
75898;SDS011;64576;50.460;4.866;2023-07-09T05:59:59;8.00;;;5.05;;
75898;SDS011;64576;50.460;4.866;2023-07-09T06:02:24;8.02;;;5.70;;
75898;SDS011;64576;50.460;4.866;2023-07-09T06:04:49;9.32;;;5.68;;
75898;SDS011;64576;50.460;4.866;2023-07-09T06:07:15;7.60;;;5.82;;
75898;SDS011;64576;50.460;4.866;2023-07-09T06:09:41;8.23;;;5.47;;
75898;SDS011;64576;50.460;4.866;2023-07-09T06:12:07;9.43;;;5.20;;
75898;SDS011;64576;50.460;4.866;2023-07-09T06:14:32;8.63;;;4.60;;
75898;SDS011;64576;50.460;4.866;2023-07-09T06:16:59;8.35;;;4.88;;
75898;SDS011;64576;50.460;4.866;2023-07-09T06:19:25;9.40;;;5.13;;
75898;SDS011;64576;50.460;4.866;2023-07-09T06:21:50;8.90;;;4.90;;
75898;SDS011;64576;50.460;4.866;2023-07-09T06:24:16;9.15;;;5.22;;
75898;SDS011;64576;50.460;4.866;2023-07-09T06:26:41;20.98;;;4.80;;
75898;SDS011;64576;50.460;4.866;2023-07-09T06:29:07;7.70;;;4.78;;
75898;SDS011;64576;50.460;4.866;2023-07-09T06:31:32;15.85;;;6.80;;
75898;SDS011;64576;50.460;4.866;2023-07-09T06:33:57;6.95;;;4.53;;
75898;SDS011;64576;50.460;4.866;2023-07-09T06:36:23;9.40;;;5.60;;
75898;SDS011;64576;50.460;4.866;2023-07-09T06:38:48;21.70;;;5.10;;
75898;SDS011;64576;50.460;4.866;2023-07-09T06:41:14;10.75;;;5.03;;
75898;SDS011;64576;50.460;4.866;2023-07-09T06:43:40;9.35;;;4.75;;
75898;SDS011;64576;50.460;4.866;2023-07-09T06:46:06;8.90;;;4.72;;
75898;SDS011;64576;50.460;4.866;2023-07-09T06:48:34;8.05;;;4.25;;
75898;SDS011;64576;50.460;4.866;2023-07-09T06:50:59;7.50;;;4.68;;
75898;SDS011;64576;50.460;4.866;2023-07-09T06:53:25;7.88;;;5.22;;
75898;SDS011;64576;50.460;4.866;2023-07-09T06:55:52;11.07;;;4.60;;
75898;SDS011;64576;50.460;4.866;2023-07-09T06:58:24;7.68;;;4.68;;
75898;SDS011;64576;50.460;4.866;2023-07-09T07:00:52;7.80;;;4.40;;
75898;SDS011;64576;50.460;4.866;2023-07-09T07:03:18;8.32;;;4.75;;
75898;SDS011;64576;50.460;4.866;2023-07-09T07:05:44;8.85;;;4.80;;
75898;SDS011;64576;50.460;4.866;2023-07-09T07:08:12;6.18;;;4.43;;
75898;SDS011;64576;50.460;4.866;2023-07-09T07:10:38;10.32;;;4.75;;
75898;SDS011;64576;50.460;4.866;2023-07-09T07:13:04;12.30;;;5.25;;
75898;SDS011;64576;50.460;4.866;2023-07-09T07:15:29;8.20;;;4.32;;
75898;SDS011;64576;50.460;4.866;2023-07-09T07:17:54;7.60;;;4.63;;
75898;SDS011;64576;50.460;4.866;2023-07-09T07:20:20;7.90;;;4.80;;
75898;SDS011;64576;50.460;4.866;2023-07-09T07:22:45;8.60;;;5.53;;
75898;SDS011;64576;50.460;4.866;2023-07-09T07:25:11;7.60;;;4.63;;
75898;SDS011;64576;50.460;4.866;2023-07-09T07:27:37;8.52;;;4.85;;
75898;SDS011;64576;50.460;4.866;2023-07-09T07:30:03;8.75;;;4.55;;
75898;SDS011;64576;50.460;4.866;2023-07-09T07:32:29;9.02;;;5.22;;
75898;SDS011;64576;50.460;4.866;2023-07-09T07:34:54;10.65;;;5.45;;
75898;SDS011;64576;50.460;4.866;2023-07-09T07:37:19;9.43;;;5.18;;
75898;SDS011;64576;50.460;4.866;2023-07-09T07:39:46;7.95;;;5.15;;
75898;SDS011;64576;50.460;4.866;2023-07-09T07:42:11;8.80;;;4.38;;
75898;SDS011;64576;50.460;4.866;2023-07-09T07:44:37;8.23;;;4.68;;
75898;SDS011;64576;50.460;4.866;2023-07-09T07:47:03;8.90;;;4.47;;
75898;SDS011;64576;50.460;4.866;2023-07-09T07:49:29;12.45;;;5.03;;
75898;SDS011;64576;50.460;4.866;2023-07-09T07:51:54;8.05;;;4.50;;
75898;SDS011;64576;50.460;4.866;2023-07-09T07:54:20;7.50;;;4.72;;
75898;SDS011;64576;50.460;4.866;2023-07-09T07:56:46;9.07;;;4.53;;
75898;SDS011;64576;50.460;4.866;2023-07-09T07:59:11;8.00;;;4.63;;
75898;SDS011;64576;50.460;4.866;2023-07-09T08:01:37;6.55;;;4.63;;
75898;SDS011;64576;50.460;4.866;2023-07-09T08:04:02;7.07;;;4.35;;
75898;SDS011;64576;50.460;4.866;2023-07-09T08:06:28;8.48;;;4.50;;
75898;SDS011;64576;50.460;4.866;2023-07-09T08:08:53;7.93;;;4.95;;
75898;SDS011;64576;50.460;4.866;2023-07-09T08:11:19;11.35;;;4.97;;
75898;SDS011;64576;50.460;4.866;2023-07-09T08:13:44;7.97;;;4.55;;
75898;SDS011;64576;50.460;4.866;2023-07-09T08:16:10;9.43;;;4.65;;
75898;SDS011;64576;50.460;4.866;2023-07-09T08:18:36;8.02;;;4.80;;
75898;SDS011;64576;50.460;4.866;2023-07-09T08:21:02;8.98;;;5.22;;
75898;SDS011;64576;50.460;4.866;2023-07-09T08:23:28;7.82;;;4.97;;
75898;SDS011;64576;50.460;4.866;2023-07-09T08:25:54;11.60;;;4.80;;
75898;SDS011;64576;50.460;4.866;2023-07-09T08:28:24;7.07;;;4.35;;
75898;SDS011;64576;50.460;4.866;2023-07-09T08:30:54;6.40;;;4.60;;
75898;SDS011;64576;50.460;4.866;2023-07-09T08:33:20;8.05;;;4.90;;
75898;SDS011;64576;50.460;4.866;2023-07-09T08:35:45;7.32;;;4.20;;
75898;SDS011;64576;50.460;4.866;2023-07-09T08:38:13;8.60;;;4.50;;
75898;SDS011;64576;50.460;4.866;2023-07-09T08:40:40;8.80;;;4.30;;
75898;SDS011;64576;50.460;4.866;2023-07-09T08:48:44;8.68;;;4.95;;
75898;SDS011;64576;50.460;4.866;2023-07-09T08:51:20;5.43;;;4.53;;
75898;SDS011;64576;50.460;4.866;2023-07-09T08:53:53;9.00;;;4.93;;
75898;SDS011;64576;50.460;4.866;2023-07-09T08:56:21;7.05;;;4.70;;
75898;SDS011;64576;50.460;4.866;2023-07-09T08:58:48;7.25;;;4.80;;
75898;SDS011;64576;50.460;4.866;2023-07-09T09:01:19;6.70;;;4.82;;
75898;SDS011;64576;50.460;4.866;2023-07-09T09:03:52;9.95;;;5.18;;
75898;SDS011;64576;50.460;4.866;2023-07-09T09:06:21;9.27;;;4.97;;
75898;SDS011;64576;50.460;4.866;2023-07-09T09:08:55;9.20;;;4.85;;
75898;SDS011;64576;50.460;4.866;2023-07-09T09:11:40;6.00;;;4.32;;
75898;SDS011;64576;50.460;4.866;2023-07-09T09:17:04;7.28;;;4.93;;
75898;SDS011;64576;50.460;4.866;2023-07-09T09:19:43;6.57;;;4.35;;
75898;SDS011;64576;50.460;4.866;2023-07-09T09:22:14;8.15;;;4.55;;
75898;SDS011;64576;50.460;4.866;2023-07-09T09:27:25;9.50;;;5.32;;
75898;SDS011;64576;50.460;4.866;2023-07-09T09:29:50;7.85;;;4.95;;
75898;SDS011;64576;50.460;4.866;2023-07-09T09:32:23;7.70;;;4.63;;
75898;SDS011;64576;50.460;4.866;2023-07-09T09:34:51;8.93;;;5.18;;
75898;SDS011;64576;50.460;4.866;2023-07-09T09:37:25;7.78;;;4.85;;
75898;SDS011;64576;50.460;4.866;2023-07-09T09:39:52;8.15;;;4.63;;
75898;SDS011;64576;50.460;4.866;2023-07-09T09:42:18;5.32;;;4.35;;
75898;SDS011;64576;50.460;4.866;2023-07-09T09:44:44;8.68;;;4.97;;
75898;SDS011;64576;50.460;4.866;2023-07-09T09:47:10;8.00;;;4.55;;
75898;SDS011;64576;50.460;4.866;2023-07-09T09:49:43;6.60;;;4.65;;
75898;SDS011;64576;50.460;4.866;2023-07-09T09:52:13;8.18;;;4.75;;
75898;SDS011;64576;50.460;4.866;2023-07-09T09:54:41;6.95;;;4.53;;
75898;SDS011;64576;50.460;4.866;2023-07-09T09:57:27;8.13;;;4.40;;
75898;SDS011;64576;50.460;4.866;2023-07-09T09:59:53;7.95;;;4.63;;
75898;SDS011;64576;50.460;4.866;2023-07-09T10:02:20;6.93;;;4.10;;
75898;SDS011;64576;50.460;4.866;2023-07-09T10:04:48;6.57;;;4.78;;
75898;SDS011;64576;50.460;4.866;2023-07-09T10:09:49;6.47;;;3.80;;
75898;SDS011;64576;50.460;4.866;2023-07-09T10:20:28;7.55;;;4.30;;
75898;SDS011;64576;50.460;4.866;2023-07-09T10:39:57;6.95;;;3.75;;
75898;SDS011;64576;50.460;4.866;2023-07-09T10:42:29;6.60;;;3.97;;
75898;SDS011;64576;50.460;4.866;2023-07-09T10:45:03;12.45;;;3.90;;
75898;SDS011;64576;50.460;4.866;2023-07-09T10:47:52;8.15;;;4.13;;
75898;SDS011;64576;50.460;4.866;2023-07-09T10:52:56;8.73;;;3.80;;
75898;SDS011;64576;50.460;4.866;2023-07-09T10:58:15;7.83;;;4.30;;
75898;SDS011;64576;50.460;4.866;2023-07-09T11:00:48;7.65;;;5.15;;
75898;SDS011;64576;50.460;4.866;2023-07-09T11:04:15;9.38;;;5.25;;
75898;SDS011;64576;50.460;4.866;2023-07-09T11:08:47;8.27;;;5.67;;
75898;SDS011;64576;50.460;4.866;2023-07-09T11:11:22;11.40;;;6.30;;
75898;SDS011;64576;50.460;4.866;2023-07-09T11:13:50;8.57;;;6.10;;
75898;SDS011;64576;50.460;4.866;2023-07-09T11:16:41;9.73;;;6.90;;
75898;SDS011;64576;50.460;4.866;2023-07-09T11:19:13;12.05;;;8.10;;
75898;SDS011;64576;50.460;4.866;2023-07-09T11:21:45;11.38;;;8.05;;
75898;SDS011;64576;50.460;4.866;2023-07-09T11:24:30;13.32;;;8.68;;
75898;SDS011;64576;50.460;4.866;2023-07-09T11:26:55;12.85;;;9.52;;
75898;SDS011;64576;50.460;4.866;2023-07-09T11:29:22;10.27;;;8.65;;
75898;SDS011;64576;50.460;4.866;2023-07-09T11:31:48;13.73;;;10.25;;
75898;SDS011;64576;50.460;4.866;2023-07-09T11:41:54;17.83;;;8.55;;
75898;SDS011;64576;50.460;4.866;2023-07-09T11:47:03;14.10;;;8.45;;
75898;SDS011;64576;50.460;4.866;2023-07-09T11:55:39;13.32;;;11.27;;
75898;SDS011;64576;50.460;4.866;2023-07-09T11:58:07;16.33;;;11.02;;
75898;SDS011;64576;50.460;4.866;2023-07-09T12:00:39;14.57;;;11.25;;
75898;SDS011;64576;50.460;4.866;2023-07-09T12:03:06;16.85;;;11.13;;
75898;SDS011;64576;50.460;4.866;2023-07-09T12:05:35;15.65;;;9.73;;
75898;SDS011;64576;50.460;4.866;2023-07-09T12:08:00;17.27;;;10.10;;
75898;SDS011;64576;50.460;4.866;2023-07-09T12:10:27;12.65;;;9.40;;
75898;SDS011;64576;50.460;4.866;2023-07-09T12:12:57;16.40;;;10.23;;
75898;SDS011;64576;50.460;4.866;2023-07-09T12:15:25;13.90;;;9.50;;
75898;SDS011;64576;50.460;4.866;2023-07-09T12:17:56;17.80;;;10.48;;
75898;SDS011;64576;50.460;4.866;2023-07-09T12:20:31;15.82;;;11.30;;
75898;SDS011;64576;50.460;4.866;2023-07-09T12:22:59;20.83;;;13.85;;
75898;SDS011;64576;50.460;4.866;2023-07-09T12:25:26;21.25;;;13.25;;
75898;SDS011;64576;50.460;4.866;2023-07-09T12:27:57;20.60;;;13.20;;
75898;SDS011;64576;50.460;4.866;2023-07-09T12:30:23;19.38;;;13.98;;
75898;SDS011;64576;50.460;4.866;2023-07-09T12:32:49;19.45;;;13.00;;
75898;SDS011;64576;50.460;4.866;2023-07-09T12:35:17;19.25;;;13.77;;
75898;SDS011;64576;50.460;4.866;2023-07-09T12:37:44;18.08;;;13.10;;
75898;SDS011;64576;50.460;4.866;2023-07-09T12:40:15;19.30;;;12.60;;
75898;SDS011;64576;50.460;4.866;2023-07-09T12:42:53;20.65;;;14.50;;
75898;SDS011;64576;50.460;4.866;2023-07-09T12:45:22;18.25;;;12.85;;
75898;SDS011;64576;50.460;4.866;2023-07-09T12:47:48;19.75;;;12.00;;
75898;SDS011;64576;50.460;4.866;2023-07-09T12:50:19;26.08;;;13.10;;
75898;SDS011;64576;50.460;4.866;2023-07-09T12:55:39;17.05;;;10.95;;
75898;SDS011;64576;50.460;4.866;2023-07-09T12:58:11;17.83;;;12.82;;
75898;SDS011;64576;50.460;4.866;2023-07-09T13:00:47;16.25;;;11.07;;
75898;SDS011;64576;50.460;4.866;2023-07-09T13:03:16;17.45;;;10.98;;
75898;SDS011;64576;50.460;4.866;2023-07-09T13:05:56;17.95;;;11.82;;
75898;SDS011;64576;50.460;4.866;2023-07-09T13:08:29;18.33;;;11.13;;
75898;SDS011;64576;50.460;4.866;2023-07-09T13:10:57;14.35;;;10.02;;
75898;SDS011;64576;50.460;4.866;2023-07-09T13:13:23;14.23;;;9.82;;
75898;SDS011;64576;50.460;4.866;2023-07-09T13:15:56;15.00;;;10.35;;
75898;SDS011;64576;50.460;4.866;2023-07-09T13:18:24;19.92;;;10.82;;
75898;SDS011;64576;50.460;4.866;2023-07-09T13:20:51;15.80;;;10.30;;
75898;SDS011;64576;50.460;4.866;2023-07-09T13:23:23;15.73;;;9.45;;
75898;SDS011;64576;50.460;4.866;2023-07-09T13:25:51;16.88;;;10.52;;
75898;SDS011;64576;50.460;4.866;2023-07-09T13:28:18;16.02;;;10.15;;
75898;SDS011;64576;50.460;4.866;2023-07-09T13:30:46;17.30;;;10.98;;
75898;SDS011;64576;50.460;4.866;2023-07-09T13:33:13;19.33;;;11.50;;
75898;SDS011;64576;50.460;4.866;2023-07-09T13:35:40;17.13;;;11.15;;
75898;SDS011;64576;50.460;4.866;2023-07-09T13:38:11;16.95;;;11.05;;
75898;SDS011;64576;50.460;4.866;2023-07-09T13:40:39;16.63;;;11.63;;
75898;SDS011;64576;50.460;4.866;2023-07-09T13:43:08;14.57;;;9.88;;
75898;SDS011;64576;50.460;4.866;2023-07-09T13:45:54;15.05;;;10.88;;
75898;SDS011;64576;50.460;4.866;2023-07-09T13:48:21;18.40;;;12.13;;
75898;SDS011;64576;50.460;4.866;2023-07-09T13:50:47;16.27;;;13.02;;
75898;SDS011;64576;50.460;4.866;2023-07-09T13:53:16;25.73;;;13.85;;
75898;SDS011;64576;50.460;4.866;2023-07-09T13:55:43;21.23;;;12.75;;
75898;SDS011;64576;50.460;4.866;2023-07-09T13:58:10;20.25;;;11.88;;
75898;SDS011;64576;50.460;4.866;2023-07-09T14:00:37;20.13;;;12.23;;
75898;SDS011;64576;50.460;4.866;2023-07-09T14:03:07;19.67;;;12.55;;
75898;SDS011;64576;50.460;4.866;2023-07-09T14:05:49;20.80;;;12.48;;
75898;SDS011;64576;50.460;4.866;2023-07-09T14:08:17;18.27;;;11.55;;
75898;SDS011;64576;50.460;4.866;2023-07-09T14:10:44;20.65;;;12.65;;
75898;SDS011;64576;50.460;4.866;2023-07-09T14:13:17;15.30;;;11.07;;
75898;SDS011;64576;50.460;4.866;2023-07-09T14:15:46;20.27;;;12.13;;
75898;SDS011;64576;50.460;4.866;2023-07-09T14:18:16;15.25;;;10.95;;
75898;SDS011;64576;50.460;4.866;2023-07-09T14:20:43;14.97;;;10.57;;
75898;SDS011;64576;50.460;4.866;2023-07-09T14:23:13;17.70;;;10.50;;
75898;SDS011;64576;50.460;4.866;2023-07-09T14:25:40;17.80;;;10.38;;
75898;SDS011;64576;50.460;4.866;2023-07-09T14:28:11;19.40;;;11.05;;
75898;SDS011;64576;50.460;4.866;2023-07-09T14:30:38;17.08;;;10.80;;
75898;SDS011;64576;50.460;4.866;2023-07-09T14:33:04;14.07;;;10.88;;
75898;SDS011;64576;50.460;4.866;2023-07-09T14:35:33;16.45;;;11.48;;
75898;SDS011;64576;50.460;4.866;2023-07-09T14:38:01;15.52;;;10.50;;
75898;SDS011;64576;50.460;4.866;2023-07-09T14:40:26;15.02;;;9.75;;
75898;SDS011;64576;50.460;4.866;2023-07-09T14:42:52;15.60;;;10.75;;
75898;SDS011;64576;50.460;4.866;2023-07-09T14:45:18;24.67;;;10.20;;
75898;SDS011;64576;50.460;4.866;2023-07-09T14:47:51;14.70;;;9.48;;
75898;SDS011;64576;50.460;4.866;2023-07-09T14:50:18;14.07;;;10.68;;
75898;SDS011;64576;50.460;4.866;2023-07-09T14:52:45;13.98;;;9.82;;
75898;SDS011;64576;50.460;4.866;2023-07-09T14:55:21;12.27;;;9.05;;
75898;SDS011;64576;50.460;4.866;2023-07-09T14:57:49;13.48;;;9.40;;
75898;SDS011;64576;50.460;4.866;2023-07-09T15:00:16;16.13;;;9.48;;
75898;SDS011;64576;50.460;4.866;2023-07-09T15:02:43;12.23;;;8.75;;
75898;SDS011;64576;50.460;4.866;2023-07-09T15:05:20;13.40;;;7.57;;
75898;SDS011;64576;50.460;4.866;2023-07-09T15:07:47;10.27;;;6.35;;
75898;SDS011;64576;50.460;4.866;2023-07-09T15:10:31;10.13;;;6.07;;
75898;SDS011;64576;50.460;4.866;2023-07-09T15:12:57;8.63;;;5.80;;
75898;SDS011;64576;50.460;4.866;2023-07-09T15:15:26;10.27;;;6.28;;
75898;SDS011;64576;50.460;4.866;2023-07-09T15:17:53;8.30;;;5.57;;
75898;SDS011;64576;50.460;4.866;2023-07-09T15:20:21;8.95;;;5.95;;
75898;SDS011;64576;50.460;4.866;2023-07-09T15:22:50;8.50;;;5.30;;
75898;SDS011;64576;50.460;4.866;2023-07-09T15:25:20;12.15;;;6.05;;
75898;SDS011;64576;50.460;4.866;2023-07-09T15:27:46;9.68;;;5.75;;
75898;SDS011;64576;50.460;4.866;2023-07-09T15:30:13;9.55;;;5.70;;
75898;SDS011;64576;50.460;4.866;2023-07-09T15:32:43;9.25;;;5.93;;
75898;SDS011;64576;50.460;4.866;2023-07-09T15:35:10;10.27;;;5.50;;
75898;SDS011;64576;50.460;4.866;2023-07-09T15:37:35;9.52;;;5.20;;
75898;SDS011;64576;50.460;4.866;2023-07-09T15:40:01;9.32;;;4.32;;
75898;SDS011;64576;50.460;4.866;2023-07-09T15:42:28;7.78;;;4.22;;
75898;SDS011;64576;50.460;4.866;2023-07-09T15:44:53;7.25;;;4.03;;
75898;SDS011;64576;50.460;4.866;2023-07-09T15:47:19;7.00;;;3.63;;
75898;SDS011;64576;50.460;4.866;2023-07-09T15:49:49;8.48;;;4.72;;
75898;SDS011;64576;50.460;4.866;2023-07-09T15:52:14;6.88;;;4.22;;
75898;SDS011;64576;50.460;4.866;2023-07-09T15:54:40;8.10;;;4.22;;
75898;SDS011;64576;50.460;4.866;2023-07-09T15:57:05;8.50;;;4.47;;